Voyager Of The Seas — C6SE5 — position and weather

sailwx.info

Track history (hours):
 
Tides and Currents Weather Stations Pressure Air Temp Water Temp Dewpoint Dewpoint Depression Visibility Wind Speed Wind Dir Waves Ship Positions

Voyager Of The Seas

Operator: Royal Caribbean Cruises Ltd

Last reported at 2014-Nov-25 12:32 UTC. Time now 2014-Nov-28 09:45 UTC.
Position N 01°16' E 104°14'.

Type: Passenger vessel. MMSI: 311317000.

Date/timePositionNaut miles runAvg speedWind from/ knotsBaromVisibWave heightAir tempDewpointWater temp
2014-Nov-25 12:32N 01°16' E 104°14'1919.5
2014-Nov-25 11:33N 01°13' E 103°55'4 3.9
2014-Nov-25 10:32N 01°16' E 103°52'0 0.0
2014-Nov-25 09:32N 01°16' E 103°52'0 0.0
2014-Nov-25 08:32N 01°16' E 103°52'0 0.0
2014-Nov-25 07:32N 01°16' E 103°52'0 0.0
2014-Nov-25 06:32N 01°16' E 103°52'0 0.0
2014-Nov-25 05:26N 01°16' E 103°52'0 0.0
2014-Nov-25 04:32N 01°16' E 103°52'0 0.0
2014-Nov-25 03:32N 01°16' E 103°52'0 0.0
2014-Nov-25 02:32N 01°16' E 103°52'0 0.0
2014-Nov-25 01:32N 01°16' E 103°52'0 0.0
2014-Nov-25 00:32N 01°16' E 103°52'0 0.0
2014-Nov-24 23:32N 01°16' E 103°52'0 0.2
2014-Nov-24 22:33N 01°16' E 103°52'  
2014-Nov-21 16:06N 01°09' E 103°44'913.7
2014-Nov-21 15:27N 01°12' E 103°52'4 3.7
2014-Nov-21 14:23N 01°16' E 103°52'0 0.0
2014-Nov-21 13:29N 01°16' E 103°52'0 0.0
2014-Nov-21 12:29N 01°16' E 103°52'0 0.0
2014-Nov-21 11:29N 01°16' E 103°52'0 0.0
2014-Nov-21 10:29N 01°16' E 103°52'0 0.0
2014-Nov-21 09:29N 01°16' E 103°52'0 0.0
2014-Nov-21 07:23N 01°16' E 103°52'0 0.0
2014-Nov-21 06:29N 01°16' E 103°52'0 0.0
2014-Nov-21 05:32N 01°16' E 103°52'0 0.0
2014-Nov-21 04:29N 01°16' E 103°52'0 0.0
2014-Nov-21 03:17N 01°16' E 103°52'0 0.0
2014-Nov-21 02:23N 01°16' E 103°52'0 0.0
2014-Nov-21 01:23N 01°16' E 103°52'0 0.0
2014-Nov-20 23:11N 01°16' E 103°52'0 0.0
2014-Nov-20 22:29N 01°16' E 103°52'0 0.0
2014-Nov-20 21:32N 01°16' E 103°52'0 0.0
2014-Nov-20 20:23N 01°16' E 103°52'0 0.0
2014-Nov-20 18:32N 01°16' E 103°52'0 0.0
2014-Nov-20 17:17N 01°16' E 103°52'0 0.0
2014-Nov-20 14:17N 01°16' E 103°52'0 0.0
2014-Nov-20 13:29N 01°16' E 103°52'0 0.0
2014-Nov-20 12:05N 01°16' E 103°52'0 0.0
2014-Nov-20 10:23N 01°16' E 103°52'0 0.0
2014-Nov-20 09:23N 01°16' E 103°52'0 0.0
2014-Nov-20 08:23N 01°16' E 103°52'0 0.0
2014-Nov-20 07:23N 01°16' E 103°52'0 0.0
2014-Nov-20 06:29N 01°16' E 103°52'0 0.0
2014-Nov-20 05:23N 01°16' E 103°52'0 0.0
2014-Nov-20 04:23N 01°16' E 103°52'0 0.0
2014-Nov-20 03:29N 01°16' E 103°52'0 0.0
2014-Nov-20 02:29N 01°16' E 103°52'0 0.0
2014-Nov-20 01:29N 01°16' E 103°52'0 0.0
2014-Nov-20 00:23N 01°16' E 103°52'0 0.2
2014-Nov-19 23:33N 01°16' E 103°52'8 7.9
2014-Nov-19 22:33N 01°15' E 103°60'1515.0
2014-Nov-19 21:33N 01°18' E 104°14'10 0.6
2014-Nov-19 03:33N 01°14' E 104°05'1817.8
2014-Nov-19 02:34N 01°10' E 103°48'13 5.7
2014-Nov-19 00:20N 01°15' E 103°36'  
Track history (hours):
 
Tides and Currents Weather Stations Pressure Air Temp Water Temp Dewpoint Dewpoint Depression Visibility Wind Speed Wind Dir Waves Ship Positions

Voyager Of The Seas

Operator: Royal Caribbean Cruises Ltd

Last reported at 2014-Nov-25 12:32 UTC. Time now 2014-Nov-28 09:45 UTC.
Position N 01°16' E 104°14'.

Type: Passenger vessel. MMSI: 311317000.

Date/timePositionNaut miles runAvg speedWind from/ knotsBaromVisibWave heightAir tempDewpointWater temp
2014-Nov-25 12:32N 01°16' E 104°14'1919.5
2014-Nov-25 11:33N 01°13' E 103°55'4 3.9
2014-Nov-25 10:32N 01°16' E 103°52'0 0.0
2014-Nov-25 09:32N 01°16' E 103°52'0 0.0
2014-Nov-25 08:32N 01°16' E 103°52'0 0.0
2014-Nov-25 07:32N 01°16' E 103°52'0 0.0
2014-Nov-25 06:32N 01°16' E 103°52'0 0.0
2014-Nov-25 05:26N 01°16' E 103°52'0 0.0
2014-Nov-25 04:32N 01°16' E 103°52'0 0.0
2014-Nov-25 03:32N 01°16' E 103°52'0 0.0
2014-Nov-25 02:32N 01°16' E 103°52'0 0.0
2014-Nov-25 01:32N 01°16' E 103°52'0 0.0
2014-Nov-25 00:32N 01°16' E 103°52'0 0.0
2014-Nov-24 23:32N 01°16' E 103°52'0 0.2
2014-Nov-24 22:33N 01°16' E 103°52'  
2014-Nov-21 16:06N 01°09' E 103°44'913.7
2014-Nov-21 15:27N 01°12' E 103°52'4 3.7
2014-Nov-21 14:23N 01°16' E 103°52'0 0.0
2014-Nov-21 13:29N 01°16' E 103°52'0 0.0
2014-Nov-21 12:29N 01°16' E 103°52'0 0.0
2014-Nov-21 11:29N 01°16' E 103°52'0 0.0
2014-Nov-21 10:29N 01°16' E 103°52'0 0.0
2014-Nov-21 09:29N 01°16' E 103°52'0 0.0
2014-Nov-21 07:23N 01°16' E 103°52'0 0.0
2014-Nov-21 06:29N 01°16' E 103°52'0 0.0
2014-Nov-21 05:32N 01°16' E 103°52'0 0.0
2014-Nov-21 04:29N 01°16' E 103°52'0 0.0
2014-Nov-21 03:17N 01°16' E 103°52'0 0.0
2014-Nov-21 02:23N 01°16' E 103°52'0 0.0
2014-Nov-21 01:23N 01°16' E 103°52'0 0.0
2014-Nov-20 23:11N 01°16' E 103°52'0 0.0
2014-Nov-20 22:29N 01°16' E 103°52'0 0.0
2014-Nov-20 21:32N 01°16' E 103°52'0 0.0
2014-Nov-20 20:23N 01°16' E 103°52'0 0.0
2014-Nov-20 18:32N 01°16' E 103°52'0 0.0
2014-Nov-20 17:17N 01°16' E 103°52'0 0.0
2014-Nov-20 14:17N 01°16' E 103°52'0 0.0
2014-Nov-20 13:29N 01°16' E 103°52'0 0.0
2014-Nov-20 12:05N 01°16' E 103°52'0 0.0
2014-Nov-20 10:23N 01°16' E 103°52'0 0.0
2014-Nov-20 09:23N 01°16' E 103°52'0 0.0
2014-Nov-20 08:23N 01°16' E 103°52'0 0.0
2014-Nov-20 07:23N 01°16' E 103°52'0 0.0
2014-Nov-20 06:29N 01°16' E 103°52'0 0.0
2014-Nov-20 05:23N 01°16' E 103°52'0 0.0
2014-Nov-20 04:23N 01°16' E 103°52'0 0.0
2014-Nov-20 03:29N 01°16' E 103°52'0 0.0
2014-Nov-20 02:29N 01°16' E 103°52'0 0.0
2014-Nov-20 01:29N 01°16' E 103°52'0 0.0
2014-Nov-20 00:23N 01°16' E 103°52'0 0.2
2014-Nov-19 23:33N 01°16' E 103°52'8 7.9
2014-Nov-19 22:33N 01°15' E 103°60'1515.0
2014-Nov-19 21:33N 01°18' E 104°14'10 0.6
2014-Nov-19 03:33N 01°14' E 104°05'1817.8
2014-Nov-19 02:34N 01°10' E 103°48'13 5.7
2014-Nov-19 00:20N 01°15' E 103°36'  

Dump ship's entire track history